This is the latest recevied weather packets stored in our database for station/object W5HKR. If no packets are shown the sender has not sent any weather packets the latest 10 day(s).
| Time | Temp. | Humidity | Pressure | Rain* | Wind** | Luminosity | Snow |
|---|---|---|---|---|---|---|---|
| 1778194402 | 18.33° C | 91% | 990.6 hPa | 0 mm | - | - | - |
| 1778194101 | 18.33° C | 91% | 990.6 hPa | 0 mm | - | - | - |
| 1778193802 | 21.11° C | 62% | 986.5 hPa | 0 mm | - | - | - |
| 1778193592 | 21.11° C | 61% | 987.1 hPa | 0 mm | - | - | - |
| 1778193501 | 18.33° C | 91% | 990.6 hPa | 0 mm | - | - | - |
| 1778193201 | 18.33° C | 91% | 990.6 hPa | 0 mm | - | - | - |
| 1778192902 | 18.33° C | 91% | 990.6 hPa | 0 mm | - | - | - |
| 1778192602 | 20.56° C | 66% | 986.8 hPa | 0 mm | - | - | - |
| 1778192513 | 18.33° C | 91% | 990.6 hPa | 0 mm | - | - | - |
| 1778192301 | 18.33° C | 91% | 990.6 hPa | 0 mm | - | - | - |
| 1778192001 | 20.56° C | 63% | 986.7 hPa | 0 mm | - | - | - |
| 1778191702 | 18.33° C | 91% | 990.6 hPa | 0 mm | - | - | - |
| 1778191432 | 18.33° C | 91% | 990.6 hPa | 0 mm | - | - | - |
| 1778191402 | 20.56° C | 62% | 987.1 hPa | 0 mm | - | - | - |
| 1778191102 | 18.33° C | 91% | 990.6 hPa | 0 mm | - | - | - |
| 1778190801 | 20.56° C | 63% | 987.1 hPa | 0 mm | - | - | - |
| 1778190501 | 20.56° C | 63% | 986.8 hPa | 0 mm | - | - | - |
| 1778190352 | 20.56° C | 63% | 986.9 hPa | 0 mm | - | - | - |
| 1778190202 | 18.33° C | 91% | 990.6 hPa | 0 mm | - | - | - |
| 1778189903 | 18.33° C | 91% | 990.6 hPa | 0 mm | - | - | - |
| 1778189601 | 20.56° C | 64% | 986.9 hPa | 0 mm | - | - | - |
| 1778189273 | 18.33° C | 91% | 990.6 hPa | 0 mm | - | - | - |
| 1778189002 | 20.56° C | 65% | 986.8 hPa | 0 mm | - | - | - |
| 1778188702 | 18.33° C | 91% | 990.6 hPa | 0 mm | - | - | - |
| 1778188402 | 20.56° C | 64% | 986.7 hPa | 0 mm | - | - | - |
* Rain latest hour (hover to see other rain measurements)
** Current wind speed in m/s (hover to see current wind gust speed)